createdAt,value
2018-12-22T00:01:33.677Z,11.70
2018-12-22T00:04:00.471Z,11.70
2018-12-22T00:06:27.346Z,11.70
2018-12-22T00:08:54.016Z,11.70
2018-12-22T00:11:20.811Z,11.70
2018-12-22T00:13:47.509Z,11.70
2018-12-22T00:16:14.209Z,11.70
2018-12-22T00:18:40.930Z,11.70
2018-12-22T00:21:07.750Z,11.70
2018-12-22T00:23:34.465Z,11.70
2018-12-22T00:26:01.183Z,11.70
2018-12-22T00:28:27.902Z,11.70
2018-12-22T00:30:54.671Z,11.70
2018-12-22T00:33:21.409Z,11.70
2018-12-22T00:35:48.151Z,11.70
2018-12-22T00:38:14.967Z,11.70
2018-12-22T00:40:41.757Z,11.60
2018-12-22T00:43:08.604Z,11.70
2018-12-22T00:45:35.340Z,11.70
2018-12-22T00:48:02.119Z,11.60
2018-12-22T00:50:28.820Z,11.60
2018-12-22T00:52:55.580Z,11.60
2018-12-22T00:55:22.386Z,11.60
2018-12-22T00:57:49.742Z,11.60
2018-12-22T01:00:16.440Z,11.20
2018-12-22T01:02:43.165Z,11.60
2018-12-22T01:05:09.919Z,11.60
2018-12-22T01:07:36.731Z,11.60
2018-12-22T01:10:03.504Z,11.60
2018-12-22T01:12:30.369Z,11.60
2018-12-22T01:14:57.083Z,11.60
2018-12-22T01:17:23.815Z,11.60
2018-12-22T01:19:50.533Z,11.60
2018-12-22T01:22:17.240Z,11.60
2018-12-22T01:24:44.738Z,11.60
2018-12-22T01:27:11.463Z,11.60
2018-12-22T01:29:38.203Z,11.60
2018-12-22T01:32:04.917Z,11.60
2018-12-22T01:34:31.651Z,11.60
2018-12-22T01:36:58.348Z,11.60
2018-12-22T01:39:25.125Z,11.60
2018-12-22T01:41:51.908Z,11.60
2018-12-22T01:44:18.581Z,11.60
2018-12-22T01:46:45.375Z,11.60
2018-12-22T01:49:12.053Z,11.60
2018-12-22T01:51:38.843Z,11.60
2018-12-22T01:54:05.632Z,11.60
2018-12-22T01:56:32.389Z,11.50
2018-12-22T01:58:59.024Z,11.60
2018-12-22T02:01:25.697Z,11.50
2018-12-22T02:03:52.382Z,11.60
2018-12-22T02:06:19.065Z,11.60
2018-12-22T02:08:45.749Z,11.50
2018-12-22T02:11:12.432Z,11.60
2018-12-22T02:13:39.147Z,11.60
2018-12-22T02:16:05.796Z,11.60
2018-12-22T02:18:32.533Z,11.60
2018-12-22T02:20:59.299Z,11.60
2018-12-22T02:23:26.079Z,11.60
2018-12-22T02:25:52.793Z,11.60
2018-12-22T02:28:19.485Z,11.60
2018-12-22T02:30:46.242Z,11.60
2018-12-22T02:33:13.090Z,11.60
2018-12-22T02:35:39.929Z,11.60
2018-12-22T02:38:06.652Z,11.60
2018-12-22T02:40:33.372Z,11.60
2018-12-22T02:43:00.119Z,11.60
2018-12-22T02:45:26.838Z,11.60
2018-12-22T02:47:53.549Z,11.60
2018-12-22T02:50:20.263Z,11.60
2018-12-22T02:52:46.991Z,11.60
2018-12-22T02:55:13.704Z,11.60
2018-12-22T02:57:40.495Z,11.60
2018-12-22T03:00:07.209Z,11.60
2018-12-22T03:02:33.871Z,11.60
2018-12-22T03:05:00.641Z,11.60
2018-12-22T03:07:27.372Z,11.60
2018-12-22T03:09:54.221Z,11.60
2018-12-22T03:12:21.012Z,11.60
2018-12-22T03:14:47.736Z,11.60
2018-12-22T03:17:14.505Z,11.60
2018-12-22T03:19:41.216Z,11.60
2018-12-22T03:22:07.944Z,11.60
2018-12-22T03:24:35.016Z,11.60
2018-12-22T03:27:01.737Z,11.60
2018-12-22T03:29:28.473Z,11.60
2018-12-22T03:31:55.172Z,11.60
2018-12-22T03:34:21.839Z,11.60
2018-12-22T03:36:48.509Z,11.60
2018-12-22T03:39:15.230Z,11.60
2018-12-22T03:41:41.892Z,11.60
2018-12-22T03:44:08.596Z,11.60
2018-12-22T03:46:35.400Z,11.60
2018-12-22T03:49:02.183Z,11.70
2018-12-22T03:51:29.040Z,11.70
2018-12-22T03:53:55.814Z,11.60
2018-12-22T03:56:22.473Z,11.70
2018-12-22T03:58:49.213Z,11.60
2018-12-22T04:01:15.985Z,11.60
2018-12-22T04:03:42.754Z,11.70
2018-12-22T04:06:09.487Z,11.70
2018-12-22T04:08:36.197Z,11.70
2018-12-22T04:11:02.911Z,11.70
2018-12-22T04:13:29.676Z,11.60
2018-12-22T04:15:56.373Z,11.70
2018-12-22T04:18:23.050Z,11.70
2018-12-22T04:20:54.224Z,11.70
2018-12-22T04:23:21.461Z,11.70
2018-12-22T04:25:48.204Z,11.40
2018-12-22T04:28:14.896Z,11.70
2018-12-22T04:30:41.646Z,11.70
2018-12-22T04:33:08.343Z,11.70
2018-12-22T04:35:35.104Z,11.70
2018-12-22T04:38:01.948Z,11.70
2018-12-22T04:40:28.617Z,11.70
2018-12-22T04:42:55.342Z,11.70
2018-12-22T04:45:22.051Z,11.70
2018-12-22T04:47:48.816Z,11.70
2018-12-22T04:50:15.553Z,11.70
2018-12-22T04:52:42.251Z,11.70
2018-12-22T04:55:09.003Z,11.70
2018-12-22T04:57:35.733Z,11.70
2018-12-22T05:00:02.477Z,11.70
2018-12-22T05:02:29.249Z,11.70
2018-12-22T05:04:56.017Z,11.70
2018-12-22T05:07:22.846Z,11.30
2018-12-22T05:09:49.587Z,11.70
2018-12-22T05:12:19.822Z,11.70
2018-12-22T05:14:47.367Z,11.70
2018-12-22T05:17:14.148Z,11.70
2018-12-22T05:19:40.915Z,11.70
2018-12-22T05:22:07.671Z,11.70
2018-12-22T05:24:34.413Z,11.70
2018-12-22T05:27:01.234Z,11.70
2018-12-22T05:29:27.957Z,11.70
2018-12-22T05:31:54.660Z,11.70
2018-12-22T05:34:21.510Z,11.70
2018-12-22T05:36:48.261Z,11.70
2018-12-22T05:39:15.386Z,11.70
2018-12-22T05:41:42.118Z,11.70
2018-12-22T05:44:08.873Z,11.70
2018-12-22T05:46:35.628Z,11.70
2018-12-22T05:49:02.327Z,11.70
2018-12-22T05:51:29.068Z,11.70
2018-12-22T05:53:55.785Z,11.70
2018-12-22T05:56:22.544Z,11.70
2018-12-22T05:58:51.278Z,11.70
2018-12-22T06:01:18.046Z,11.70
2018-12-22T06:03:44.751Z,11.70
2018-12-22T06:06:11.546Z,11.70
2018-12-22T06:08:38.310Z,11.60
2018-12-22T06:11:05.011Z,11.60
2018-12-22T06:13:31.696Z,11.60
2018-12-22T06:15:58.392Z,11.70
2018-12-22T06:18:25.246Z,11.70
2018-12-22T06:20:51.939Z,11.60
2018-12-22T06:23:18.617Z,11.60
2018-12-22T06:25:45.378Z,11.60
2018-12-22T06:28:12.033Z,11.60
2018-12-22T06:30:38.859Z,11.60
2018-12-22T06:33:05.647Z,11.60
2018-12-22T06:35:32.537Z,11.60
2018-12-22T06:37:59.385Z,11.60
2018-12-22T06:40:26.201Z,11.60
2018-12-22T06:42:52.939Z,11.60
2018-12-22T06:45:19.797Z,11.60
2018-12-22T06:47:46.615Z,11.60
2018-12-22T06:50:13.337Z,11.60
2018-12-22T06:52:40.146Z,11.60
2018-12-22T06:55:07.001Z,11.60
2018-12-22T06:57:33.783Z,11.60
2018-12-22T07:00:00.556Z,11.60
2018-12-22T07:02:27.289Z,11.60
2018-12-22T07:04:53.982Z,11.60
2018-12-22T07:07:24.252Z,11.60
2018-12-22T07:09:54.117Z,11.60
2018-12-22T07:12:24.789Z,11.60
2018-12-22T07:14:53.867Z,11.60
2018-12-22T07:17:20.711Z,11.60
2018-12-22T07:19:47.557Z,11.60
2018-12-22T07:22:14.436Z,11.60
2018-12-22T07:24:41.213Z,11.60
2018-12-22T07:27:08.124Z,11.60
2018-12-22T07:29:35.022Z,11.50
2018-12-22T07:32:01.788Z,11.50
2018-12-22T07:34:28.662Z,11.60
2018-12-22T07:36:55.380Z,11.50
2018-12-22T07:39:22.078Z,11.60
2018-12-22T07:41:48.862Z,11.50
2018-12-22T07:44:15.703Z,11.60
2018-12-22T07:46:42.648Z,11.60
2018-12-22T07:49:09.489Z,11.50
2018-12-22T07:51:36.478Z,11.50
2018-12-22T07:54:03.300Z,11.50
2018-12-22T07:56:30.013Z,11.50
2018-12-22T07:58:56.820Z,11.50
2018-12-22T08:01:23.568Z,11.50
2018-12-22T08:03:50.258Z,11.50
2018-12-22T08:06:16.956Z,11.50
2018-12-22T08:08:43.727Z,11.50
2018-12-22T08:11:10.490Z,11.50
2018-12-22T08:13:37.271Z,11.50
2018-12-22T08:16:03.984Z,11.50
2018-12-22T08:18:30.781Z,11.50
2018-12-22T08:20:57.670Z,11.50
2018-12-22T08:23:24.545Z,11.50
2018-12-22T08:25:51.412Z,11.50
2018-12-22T08:28:18.142Z,11.50
2018-12-22T08:30:44.967Z,11.50
2018-12-22T08:33:11.733Z,11.50
2018-12-22T08:35:38.525Z,11.50
2018-12-22T08:38:05.278Z,11.50
2018-12-22T08:40:31.965Z,11.40
2018-12-22T08:42:58.664Z,11.50
2018-12-22T08:45:25.426Z,11.50
2018-12-22T08:47:52.204Z,11.50
2018-12-22T08:50:18.927Z,11.50
2018-12-22T08:52:45.608Z,11.40
2018-12-22T08:55:12.337Z,11.50
2018-12-22T08:57:39.101Z,11.50
2018-12-22T09:00:05.893Z,11.40
2018-12-22T09:02:32.580Z,11.40
2018-12-22T09:04:59.261Z,11.40
2018-12-22T09:07:26.012Z,11.40
2018-12-22T09:09:52.837Z,11.40
2018-12-22T09:12:19.602Z,11.40
2018-12-22T09:14:46.396Z,11.40
2018-12-22T09:17:13.081Z,11.40
2018-12-22T09:19:39.771Z,11.40
2018-12-22T09:22:07.150Z,11.40
2018-12-22T09:24:34.002Z,11.10
2018-12-22T09:27:00.739Z,11.40
2018-12-22T09:29:27.451Z,11.40
2018-12-22T09:31:54.218Z,11.40
2018-12-22T09:34:20.941Z,11.40
2018-12-22T09:36:47.699Z,11.40
2018-12-22T09:39:14.473Z,11.40
2018-12-22T09:41:41.322Z,11.40
2018-12-22T09:44:08.146Z,11.40
2018-12-22T09:46:34.914Z,11.40
2018-12-22T09:49:01.737Z,11.40
2018-12-22T09:51:29.541Z,11.40
2018-12-22T09:53:56.378Z,11.40
2018-12-22T09:56:23.169Z,11.30
2018-12-22T09:58:49.960Z,11.40
2018-12-22T10:01:16.810Z,11.40
2018-12-22T10:03:43.629Z,11.30
2018-12-22T10:06:10.344Z,11.40
2018-12-22T10:08:37.061Z,11.40
2018-12-22T10:11:03.776Z,11.30
2018-12-22T10:13:30.645Z,11.30
2018-12-22T10:15:57.383Z,11.40
2018-12-22T10:18:24.052Z,11.40
2018-12-22T10:20:51.256Z,11.40
2018-12-22T10:23:17.969Z,11.40
2018-12-22T10:25:44.769Z,11.40
2018-12-22T10:28:11.558Z,11.30
2018-12-22T10:30:38.455Z,11.40
2018-12-22T10:33:05.187Z,11.40
2018-12-22T10:35:31.921Z,11.40
2018-12-22T10:37:58.760Z,11.40
2018-12-22T10:40:25.628Z,11.40
2018-12-22T10:42:52.451Z,11.40
2018-12-22T10:45:19.315Z,11.40
2018-12-22T10:47:46.031Z,11.40
2018-12-22T10:50:12.888Z,11.40
2018-12-22T10:52:39.872Z,11.40
2018-12-22T10:55:06.692Z,11.40
2018-12-22T10:57:33.607Z,11.40
2018-12-22T11:00:00.371Z,11.40
2018-12-22T11:02:27.222Z,11.40
2018-12-22T11:04:53.969Z,11.40
2018-12-22T11:07:20.764Z,11.40
2018-12-22T11:09:47.540Z,11.50
2018-12-22T11:12:14.267Z,11.50
2018-12-22T11:14:41.046Z,11.50
2018-12-22T11:17:07.785Z,11.50
2018-12-22T11:19:34.512Z,11.50
2018-12-22T11:22:01.326Z,11.50
2018-12-22T11:24:28.094Z,11.50
2018-12-22T11:26:54.915Z,11.50
2018-12-22T11:29:21.844Z,11.50
2018-12-22T11:31:48.620Z,11.50
2018-12-22T11:34:15.353Z,11.50
2018-12-22T11:36:42.069Z,11.50
2018-12-22T11:39:08.949Z,11.50
2018-12-22T11:41:35.774Z,11.50
2018-12-22T11:44:02.503Z,11.50
2018-12-22T11:46:29.230Z,11.50
2018-12-22T11:48:55.947Z,11.50
2018-12-22T11:51:23.955Z,11.60
2018-12-22T11:53:50.792Z,11.60
2018-12-22T11:56:18.175Z,11.50
2018-12-22T11:58:45.637Z,11.50
2018-12-22T12:01:12.497Z,11.60
2018-12-22T12:03:39.243Z,11.60
2018-12-22T12:06:06.670Z,11.60
2018-12-22T12:08:33.575Z,11.60
2018-12-22T12:11:00.849Z,11.60
2018-12-22T12:13:27.628Z,11.60
2018-12-22T12:15:54.570Z,11.60
2018-12-22T12:18:21.653Z,11.60
2018-12-22T12:20:48.409Z,11.60
2018-12-22T12:23:15.168Z,11.60
2018-12-22T12:25:43.492Z,11.70
2018-12-22T12:28:11.078Z,11.70
2018-12-22T12:30:38.039Z,11.60
2018-12-22T12:33:05.692Z,11.70
2018-12-22T12:35:32.387Z,11.60
2018-12-22T12:37:59.729Z,11.70
2018-12-22T12:40:26.640Z,11.70
2018-12-22T12:42:53.657Z,11.70
2018-12-22T12:45:20.627Z,11.70
2018-12-22T12:47:47.591Z,11.70
2018-12-22T12:50:14.415Z,11.70
2018-12-22T12:52:41.155Z,11.70
2018-12-22T12:55:08.163Z,11.70
2018-12-22T12:57:35.037Z,11.70
2018-12-22T13:00:02.011Z,11.70
2018-12-22T13:02:28.761Z,11.70
2018-12-22T13:04:55.563Z,11.70
2018-12-22T13:07:22.433Z,11.70
2018-12-22T13:09:49.229Z,11.70
2018-12-22T13:12:15.933Z,11.70
2018-12-22T13:14:42.691Z,11.70
2018-12-22T13:17:09.946Z,11.80
2018-12-22T13:19:36.766Z,11.80
2018-12-22T13:22:03.543Z,11.80
2018-12-22T13:24:30.473Z,11.80
2018-12-22T13:26:57.187Z,11.80
2018-12-22T13:29:23.981Z,11.80
2018-12-22T13:31:50.725Z,11.80
2018-12-22T13:34:17.540Z,11.80
2018-12-22T13:36:44.336Z,11.80
2018-12-22T13:39:11.037Z,11.80
2018-12-22T13:41:37.796Z,11.80
2018-12-22T13:48:05.904Z,11.80
2018-12-22T13:50:34.008Z,11.80
2018-12-22T13:53:01.927Z,11.80
2018-12-22T13:55:29.278Z,11.80
2018-12-22T14:00:35.385Z,11.80
2018-12-22T14:03:02.442Z,11.90
2018-12-22T14:05:29.198Z,11.80
2018-12-22T14:07:58.040Z,11.90
2018-12-22T14:10:25.104Z,11.80
2018-12-22T14:12:52.585Z,11.80
2018-12-22T14:15:19.321Z,11.90
2018-12-22T14:17:46.100Z,11.90
2018-12-22T14:20:13.974Z,11.90
2018-12-22T14:22:40.760Z,11.90
2018-12-22T14:25:09.036Z,11.90
2018-12-22T14:27:35.896Z,11.90
2018-12-22T14:30:02.628Z,11.90
2018-12-22T14:32:30.112Z,11.90
2018-12-22T14:34:57.413Z,11.90
2018-12-22T14:37:24.254Z,11.90
2018-12-22T14:39:51.128Z,11.90
2018-12-22T14:42:17.930Z,11.90
2018-12-22T14:44:44.722Z,11.90
2018-12-22T14:47:11.475Z,11.90
2018-12-22T14:49:38.206Z,11.90
2018-12-22T14:52:05.045Z,11.90
2018-12-22T14:54:31.788Z,11.90
2018-12-22T14:56:58.746Z,11.90
2018-12-22T14:59:38.096Z,11.90
2018-12-22T15:02:12.678Z,11.90
2018-12-22T15:04:39.525Z,11.90
2018-12-22T15:07:06.952Z,11.90
2018-12-22T15:11:58.583Z,11.90
2018-12-22T15:14:25.395Z,11.90
2018-12-22T15:16:52.137Z,11.90
2018-12-22T15:19:19.707Z,11.90
2018-12-22T15:21:46.426Z,11.90
2018-12-22T15:24:14.041Z,11.90
2018-12-22T15:26:41.470Z,11.90
2018-12-22T15:29:08.305Z,11.60
2018-12-22T15:31:35.014Z,11.90
2018-12-22T15:34:01.878Z,11.90
2018-12-22T15:36:29.397Z,11.90
2018-12-22T15:38:56.256Z,11.90
2018-12-22T15:41:23.024Z,11.90
2018-12-22T15:43:50.070Z,11.90
2018-12-22T15:46:16.824Z,11.90
2018-12-22T15:48:43.595Z,11.90
2018-12-22T15:51:10.604Z,11.90
2018-12-22T15:53:37.472Z,11.90
2018-12-22T15:56:04.244Z,11.90
2018-12-22T15:58:30.958Z,11.90
2018-12-22T16:00:57.704Z,11.80
2018-12-22T16:03:24.456Z,11.90
2018-12-22T16:05:54.942Z,11.80
2018-12-22T16:08:27.151Z,11.80
2018-12-22T16:10:58.406Z,11.80
2018-12-22T16:13:25.110Z,11.80
2018-12-22T16:15:51.840Z,11.80
2018-12-22T16:18:18.632Z,11.80
2018-12-22T16:20:45.405Z,11.80
2018-12-22T16:23:16.393Z,11.80
2018-12-22T16:25:43.871Z,11.70
2018-12-22T16:28:10.594Z,11.70
2018-12-22T16:30:37.332Z,11.70
2018-12-22T16:33:04.148Z,11.70
2018-12-22T16:35:30.926Z,11.70
2018-12-22T16:37:57.641Z,11.70
2018-12-22T16:40:24.366Z,11.70
2018-12-22T16:42:51.170Z,11.70
2018-12-22T16:45:18.115Z,11.70
2018-12-22T16:47:44.823Z,11.70
2018-12-22T16:50:11.643Z,11.70
2018-12-22T16:52:38.976Z,11.70
2018-12-22T16:55:05.890Z,11.60
2018-12-22T16:57:32.604Z,11.60
2018-12-22T16:59:59.316Z,11.60
2018-12-22T17:02:26.164Z,11.60
2018-12-22T17:04:52.957Z,11.60
2018-12-22T17:07:20.921Z,11.60
2018-12-22T17:09:47.760Z,11.60
2018-12-22T17:12:14.487Z,11.60
2018-12-22T17:14:41.318Z,11.50
2018-12-22T17:17:08.105Z,11.50
2018-12-22T17:19:34.909Z,11.50
2018-12-22T17:22:01.644Z,11.50
2018-12-22T17:24:28.373Z,11.50
2018-12-22T17:26:55.055Z,11.50
2018-12-22T17:29:21.844Z,11.50
2018-12-22T17:31:48.561Z,11.50
2018-12-22T17:34:15.344Z,11.50
2018-12-22T17:36:42.092Z,11.50
2018-12-22T17:39:08.748Z,11.50
2018-12-22T17:41:35.472Z,11.50
2018-12-22T17:44:02.243Z,11.40
2018-12-22T17:46:28.938Z,11.40
2018-12-22T17:48:55.641Z,11.10
2018-12-22T17:51:23.409Z,11.40
2018-12-22T17:53:50.239Z,11.40
2018-12-22T17:56:17.218Z,11.40
2018-12-22T17:58:43.934Z,11.30
2018-12-22T18:01:10.907Z,11.40
2018-12-22T18:03:37.567Z,11.40
2018-12-22T18:06:04.275Z,11.10
2018-12-22T18:08:30.971Z,11.30
2018-12-22T18:10:58.630Z,11.30
2018-12-22T18:13:25.321Z,11.30
2018-12-22T18:15:52.102Z,11.30
2018-12-22T18:18:18.791Z,11.30
2018-12-22T18:20:45.515Z,11.30
2018-12-22T18:23:12.305Z,11.30
2018-12-22T18:25:39.094Z,11.30
2018-12-22T18:28:05.809Z,11.30
2018-12-22T18:30:32.517Z,11.30
2018-12-22T18:32:59.295Z,11.30
2018-12-22T18:35:26.056Z,11.30
2018-12-22T18:37:52.819Z,11.20
2018-12-22T18:40:19.609Z,11.20
2018-12-22T18:42:46.416Z,11.20
2018-12-22T18:45:13.155Z,11.20
2018-12-22T18:47:40.044Z,11.20
2018-12-22T18:50:06.781Z,11.20
2018-12-22T18:52:33.457Z,11.20
2018-12-22T18:55:00.259Z,11.20
2018-12-22T18:57:27.062Z,10.80
2018-12-22T18:59:53.734Z,11.20
2018-12-22T19:02:20.381Z,11.20
2018-12-22T19:04:47.071Z,11.20
2018-12-22T19:07:13.773Z,10.80
2018-12-22T19:09:40.450Z,10.90
2018-12-22T19:12:07.343Z,11.20
2018-12-22T19:14:34.150Z,11.20
2018-12-22T19:17:01.006Z,11.10
2018-12-22T19:19:27.746Z,11.10
2018-12-22T19:21:54.464Z,11.10
2018-12-22T19:24:21.203Z,11.10
2018-12-22T19:26:47.930Z,11.10
2018-12-22T19:29:14.586Z,11.10
2018-12-22T19:31:41.881Z,11.10
2018-12-22T19:34:09.148Z,11.10
2018-12-22T19:36:35.846Z,11.10
2018-12-22T19:39:03.674Z,11.10
2018-12-22T19:41:30.441Z,11.10
2018-12-22T19:43:57.178Z,11.10
2018-12-22T19:46:23.987Z,11.00
2018-12-22T19:48:50.864Z,11.00
2018-12-22T19:51:17.702Z,11.00
2018-12-22T19:53:44.453Z,11.00
2018-12-22T19:56:11.251Z,11.00
2018-12-22T19:58:38.037Z,11.00
2018-12-22T20:01:04.834Z,11.00
2018-12-22T20:03:31.623Z,11.00
2018-12-22T20:05:58.479Z,11.00
2018-12-22T20:08:25.307Z,11.00
2018-12-22T20:10:52.201Z,11.00
2018-12-22T20:13:19.037Z,11.00
2018-12-22T20:15:45.785Z,11.00
2018-12-22T20:18:12.519Z,11.00
2018-12-22T20:20:39.295Z,11.00
2018-12-22T20:23:06.287Z,10.90
2018-12-22T20:25:33.111Z,10.90
2018-12-22T20:27:59.831Z,10.90
2018-12-22T20:30:26.636Z,10.90
2018-12-22T20:32:53.309Z,10.90
2018-12-22T20:35:20.023Z,10.90
2018-12-22T20:37:46.773Z,10.90
2018-12-22T20:40:13.540Z,10.90
2018-12-22T20:42:40.428Z,10.90
2018-12-22T20:45:07.116Z,10.90
2018-12-22T20:47:33.871Z,10.90
2018-12-22T20:50:00.575Z,10.90
2018-12-22T20:52:27.243Z,10.90
2018-12-22T20:54:53.888Z,10.80
2018-12-22T20:57:20.668Z,10.80
2018-12-22T20:59:47.532Z,10.80
2018-12-22T21:02:14.469Z,10.80
2018-12-22T21:04:41.251Z,10.80
2018-12-22T21:07:08.020Z,10.80
2018-12-22T21:09:34.887Z,10.80
2018-12-22T21:12:01.590Z,10.80
2018-12-22T21:14:28.392Z,10.80
2018-12-22T21:16:55.122Z,10.80
2018-12-22T21:19:22.003Z,10.70
2018-12-22T21:21:48.667Z,10.70
2018-12-22T21:24:15.412Z,10.70
2018-12-22T21:26:42.117Z,10.70
2018-12-22T21:29:08.782Z,10.70
2018-12-22T21:31:38.551Z,10.70
2018-12-22T21:34:05.889Z,10.70
2018-12-22T21:36:32.706Z,10.70
2018-12-22T21:38:59.549Z,10.70
2018-12-22T21:41:26.501Z,10.70
2018-12-22T21:43:53.355Z,10.70
2018-12-22T21:46:20.195Z,10.70
2018-12-22T21:48:46.948Z,10.70
2018-12-22T21:51:13.778Z,10.60
2018-12-22T21:53:40.519Z,10.60
2018-12-22T21:56:07.243Z,10.60
2018-12-22T21:58:34.006Z,10.60
2018-12-22T22:01:00.880Z,10.60
2018-12-22T22:03:27.633Z,10.60
2018-12-22T22:05:54.437Z,10.60
2018-12-22T22:08:21.183Z,10.60
2018-12-22T22:10:47.922Z,10.60
2018-12-22T22:13:14.630Z,10.60
2018-12-22T22:15:41.318Z,10.60
2018-12-22T22:18:08.070Z,10.60
2018-12-22T22:20:34.925Z,10.60
2018-12-22T22:23:01.836Z,10.50
2018-12-22T22:25:28.667Z,10.50
2018-12-22T22:27:55.384Z,10.50
2018-12-22T22:30:22.182Z,10.50
2018-12-22T22:32:48.905Z,10.50
2018-12-22T22:35:15.810Z,10.20
2018-12-22T22:37:42.494Z,10.50
2018-12-22T22:40:09.214Z,10.50
2018-12-22T22:42:38.096Z,10.50
2018-12-22T22:45:04.940Z,10.50
2018-12-22T22:47:31.648Z,10.50
2018-12-22T22:49:58.380Z,10.50
2018-12-22T22:52:25.206Z,10.40
2018-12-22T22:54:51.962Z,10.40
2018-12-22T22:57:18.815Z,10.40
2018-12-22T22:59:45.514Z,10.40
2018-12-22T23:02:12.194Z,10.40
2018-12-22T23:04:38.958Z,10.40
2018-12-22T23:07:05.743Z,10.40
2018-12-22T23:09:32.497Z,10.40
2018-12-22T23:11:59.187Z,10.40
2018-12-22T23:14:26.070Z,10.40
2018-12-22T23:16:52.924Z,10.40
2018-12-22T23:19:19.721Z,10.30
2018-12-22T23:21:46.499Z,10.30
2018-12-22T23:24:13.294Z,10.30
2018-12-22T23:26:40.069Z,10.30
2018-12-22T23:29:06.796Z,10.30
2018-12-22T23:31:33.630Z,10.30
2018-12-22T23:34:00.322Z,10.30
2018-12-22T23:36:27.060Z,10.30
2018-12-22T23:38:53.710Z,10.30
2018-12-22T23:41:20.410Z,10.30
2018-12-22T23:43:47.140Z,10.30
2018-12-22T23:46:13.866Z,10.30
2018-12-22T23:48:40.672Z,10.20
2018-12-22T23:51:07.478Z,10.20
2018-12-22T23:53:34.185Z,10.20
2018-12-22T23:56:00.935Z,10.20
2018-12-22T23:58:27.727Z,10.20
